createdAt,value
2019-04-06T00:00:37.015Z,19.63
2019-04-06T00:03:07.005Z,19.03
2019-04-06T00:05:37.011Z,18.90
2019-04-06T00:08:06.933Z,18.60
2019-04-06T00:10:36.833Z,17.83
2019-04-06T00:13:06.712Z,18.40
2019-04-06T00:15:36.627Z,19.00
2019-04-06T00:18:06.576Z,18.73
2019-04-06T00:20:36.482Z,18.80
2019-04-06T00:23:06.454Z,18.60
2019-04-06T00:25:44.258Z,18.77
2019-04-06T00:28:07.957Z,18.20
2019-04-06T00:30:55.723Z,18.53
2019-04-06T00:33:25.655Z,18.47
2019-04-06T00:35:55.630Z,18.60
2019-04-06T00:38:25.620Z,19.23
2019-04-06T00:40:55.612Z,20.13
2019-04-06T00:43:25.530Z,18.57
2019-04-06T00:45:55.436Z,18.07
2019-04-06T00:48:25.331Z,19.63
2019-04-06T00:50:55.247Z,19.57
2019-04-06T00:53:25.076Z,19.03
2019-04-06T00:55:56.336Z,19.17
2019-04-06T00:58:26.315Z,18.63
2019-04-06T01:00:56.214Z,19.57
2019-04-06T01:03:26.141Z,20.70
2019-04-06T01:05:56.042Z,19.80
2019-04-06T01:08:25.919Z,20.77
2019-04-06T01:10:55.844Z,21.57
2019-04-06T01:13:25.679Z,21.90
2019-04-06T01:15:55.592Z,21.30
2019-04-06T01:18:25.622Z,20.50
2019-04-06T01:20:56.613Z,21.77
2019-04-06T01:23:26.541Z,20.67
2019-04-06T01:26:06.697Z,19.50
2019-04-06T01:28:28.221Z,19.27
2019-04-06T01:30:58.189Z,19.63
2019-04-06T01:33:28.041Z,19.77
2019-04-06T01:35:58.021Z,19.60
2019-04-06T01:38:27.922Z,20.63
2019-04-06T01:40:57.849Z,18.17
2019-04-06T01:43:27.724Z,19.47
2019-04-06T01:45:57.698Z,18.17
2019-04-06T01:48:27.681Z,19.37
2019-04-06T01:50:57.643Z,18.37
2019-04-06T01:53:27.501Z,18.23
2019-04-06T01:55:57.760Z,17.90
2019-04-06T01:58:27.660Z,17.70
2019-04-06T02:01:11.003Z,17.90
2019-04-06T02:03:40.908Z,18.93
2019-04-06T02:06:10.739Z,20.00
2019-04-06T02:08:40.636Z,20.20
2019-04-06T02:11:10.640Z,19.07
2019-04-06T02:13:40.539Z,19.10
2019-04-06T02:16:10.431Z,19.90
2019-04-06T02:18:41.412Z,18.43
2019-04-06T02:21:11.298Z,19.93
2019-04-06T02:23:41.274Z,20.37
2019-04-06T02:26:11.095Z,20.93
2019-04-06T02:28:40.968Z,20.87
2019-04-06T02:31:14.596Z,19.97
2019-04-06T02:33:55.959Z,16.57
2019-04-06T02:36:43.521Z,16.50
2019-04-06T02:39:20.189Z,17.37
2019-04-06T02:41:55.017Z,17.70
2019-04-06T02:44:25.018Z,18.63
2019-04-06T02:46:54.994Z,18.77
2019-04-06T02:49:24.903Z,18.40
2019-04-06T02:51:54.809Z,22.17
2019-04-06T02:54:24.663Z,22.20
2019-04-06T02:56:54.578Z,21.50
2019-04-06T02:59:25.490Z,21.47
2019-04-06T03:01:55.477Z,22.20
2019-04-06T03:04:25.597Z,22.00
2019-04-06T03:06:55.607Z,21.47
2019-04-06T03:09:26.529Z,21.53
2019-04-06T03:11:56.407Z,23.87
2019-04-06T03:14:26.432Z,20.50
2019-04-06T03:16:56.384Z,21.13
2019-04-06T03:19:26.286Z,21.37
2019-04-06T03:21:56.260Z,21.23
2019-04-06T03:24:26.236Z,21.60
2019-04-06T03:27:01.975Z,21.10
2019-04-06T03:29:27.734Z,20.00
2019-04-06T03:31:57.647Z,21.03
2019-04-06T03:34:27.840Z,21.40
2019-04-06T03:36:57.707Z,20.87
2019-04-06T03:39:27.646Z,19.47
2019-04-06T03:41:57.597Z,19.60
2019-04-06T03:44:27.510Z,19.43
2019-04-06T03:46:57.398Z,19.70
2019-04-06T03:49:27.478Z,20.83
2019-04-06T03:51:57.461Z,21.00
2019-04-06T03:54:27.351Z,19.97
2019-04-06T03:56:57.530Z,20.47
2019-04-06T03:59:27.658Z,21.23
2019-04-06T04:01:57.473Z,21.30
2019-04-06T04:04:27.515Z,20.83
2019-04-06T04:06:57.316Z,22.23
2019-04-06T04:09:27.255Z,22.40
2019-04-06T04:11:57.355Z,23.27
2019-04-06T04:14:28.787Z,24.37
2019-04-06T04:16:58.761Z,23.53
2019-04-06T04:19:28.798Z,23.07
2019-04-06T04:21:58.990Z,21.83
2019-04-06T04:24:28.771Z,21.67
2019-04-06T04:26:58.614Z,22.57
2019-04-06T04:29:28.449Z,23.37
2019-04-06T04:31:58.371Z,23.40
2019-04-06T04:34:28.275Z,23.93
2019-04-06T04:36:58.175Z,22.27
2019-04-06T04:39:28.044Z,21.43
2019-04-06T04:41:58.000Z,20.47
2019-04-06T04:44:27.911Z,20.73
2019-04-06T04:46:57.831Z,21.27
2019-04-06T04:49:27.746Z,21.17
2019-04-06T04:51:57.712Z,23.90
2019-04-06T04:54:27.607Z,23.87
2019-04-06T04:56:57.466Z,24.73
2019-04-06T04:59:27.413Z,25.60
2019-04-06T05:01:57.217Z,25.53
2019-04-06T05:04:27.119Z,24.63
2019-04-06T05:06:56.947Z,24.50
2019-04-06T05:09:26.898Z,26.97
2019-04-06T05:11:56.729Z,26.07
2019-04-06T05:14:57.511Z,27.57
2019-04-06T05:17:29.459Z,26.03
2019-04-06T05:19:59.455Z,25.77
2019-04-06T05:22:29.530Z,25.27
2019-04-06T05:24:59.505Z,25.47
2019-04-06T05:27:29.489Z,25.67
2019-04-06T05:30:00.281Z,25.40
2019-04-06T05:32:31.180Z,25.57
2019-04-06T05:35:01.021Z,25.23
2019-04-06T05:37:30.855Z,25.73
2019-04-06T05:40:00.855Z,25.93
2019-04-06T05:42:30.770Z,24.17
2019-04-06T05:45:00.596Z,26.60
2019-04-06T05:47:30.593Z,26.70
2019-04-06T05:50:00.636Z,25.17
2019-04-06T05:52:30.679Z,22.77
2019-04-06T05:55:00.586Z,25.33
2019-04-06T05:57:32.128Z,23.80
2019-04-06T06:00:03.076Z,22.73
2019-04-06T06:02:32.923Z,23.50
2019-04-06T06:05:02.927Z,22.13
2019-04-06T06:07:33.902Z,24.40
2019-04-06T06:10:03.927Z,24.70
2019-04-06T06:12:33.841Z,26.23
2019-04-06T06:15:04.397Z,23.50
2019-04-06T06:17:36.392Z,25.20
2019-04-06T06:20:06.475Z,24.03
2019-04-06T06:22:36.447Z,23.63
2019-04-06T06:25:06.709Z,24.67
2019-04-06T06:27:36.619Z,24.17
2019-04-06T06:30:08.532Z,26.87
2019-04-06T06:32:38.522Z,28.07
2019-04-06T06:35:08.963Z,24.37
2019-04-06T06:37:39.105Z,27.23
2019-04-06T06:40:09.394Z,25.50
2019-04-06T06:42:39.392Z,25.17
2019-04-06T06:45:09.828Z,25.77
2019-04-06T06:47:39.980Z,26.17
2019-04-06T06:50:10.074Z,26.43
2019-04-06T06:52:40.182Z,25.93
2019-04-06T06:55:10.300Z,29.30
2019-04-06T06:57:40.411Z,26.80
2019-04-06T07:00:12.479Z,29.77
2019-04-06T07:02:42.494Z,28.40
2019-04-06T07:05:12.674Z,27.90
2019-04-06T07:07:42.601Z,27.90
2019-04-06T07:10:12.590Z,26.50
2019-04-06T07:12:42.526Z,27.43
2019-04-06T07:15:12.642Z,27.60
2019-04-06T07:17:42.696Z,28.00
2019-04-06T07:20:13.197Z,28.47
2019-04-06T07:22:43.278Z,27.77
2019-04-06T07:25:13.460Z,30.03
2019-04-06T07:27:43.430Z,29.53
2019-04-06T07:30:13.768Z,28.90
2019-04-06T07:32:43.893Z,28.20
2019-04-06T07:35:14.328Z,28.40
2019-04-06T07:37:45.210Z,29.90
2019-04-06T07:40:15.535Z,30.73
2019-04-06T07:42:45.953Z,30.73
2019-04-06T07:45:17.800Z,30.07
2019-04-06T07:47:47.627Z,30.33
2019-04-06T07:50:17.714Z,28.63
2019-04-06T07:52:47.744Z,28.97
2019-04-06T07:55:20.524Z,28.57
2019-04-06T07:57:50.367Z,29.43
2019-04-06T08:00:20.643Z,29.33
2019-04-06T08:02:50.742Z,27.87
2019-04-06T08:05:20.657Z,31.47
2019-04-06T08:07:50.809Z,27.97
2019-04-06T08:10:20.692Z,31.03
2019-04-06T08:12:50.537Z,31.67
2019-04-06T08:15:20.464Z,30.67
2019-04-06T08:17:50.508Z,30.00
2019-04-06T08:20:20.646Z,26.80
2019-04-06T08:22:50.661Z,31.77
2019-04-06T08:25:20.673Z,30.40
2019-04-06T08:27:50.683Z,28.00
2019-04-06T08:30:20.878Z,30.07
2019-04-06T08:32:50.769Z,30.00
2019-04-06T08:35:25.758Z,30.50
2019-04-06T08:37:52.537Z,31.60
2019-04-06T08:40:23.615Z,31.90
2019-04-06T08:42:53.615Z,29.30
2019-04-06T08:45:23.594Z,30.60
2019-04-06T08:47:53.745Z,29.97
2019-04-06T08:50:23.648Z,30.03
2019-04-06T08:52:53.485Z,30.07
2019-04-06T08:55:23.346Z,29.97
2019-04-06T08:57:53.396Z,29.90
2019-04-06T09:00:23.517Z,30.27
2019-04-06T09:02:53.900Z,30.43
2019-04-06T09:05:23.911Z,30.27
2019-04-06T09:07:53.873Z,28.60
2019-04-06T09:10:24.353Z,30.50
2019-04-06T09:12:55.257Z,30.50
2019-04-06T09:15:25.147Z,31.27
2019-04-06T09:17:55.210Z,29.60
2019-04-06T09:20:25.230Z,32.07
2019-04-06T09:22:55.124Z,32.30
2019-04-06T09:25:25.016Z,33.00
2019-04-06T09:27:54.863Z,31.70
2019-04-06T09:30:24.907Z,32.30
2019-04-06T09:32:54.954Z,34.33
2019-04-06T09:35:24.944Z,32.33
2019-04-06T09:37:54.856Z,31.47
2019-04-06T09:40:24.726Z,30.93
2019-04-06T09:42:54.641Z,30.30
2019-04-06T09:45:42.107Z,30.43
2019-04-06T09:48:21.392Z,28.07
2019-04-06T09:51:11.794Z,29.83
2019-04-06T09:54:12.877Z,28.53
2019-04-06T09:56:55.925Z,27.47
2019-04-06T09:59:37.033Z,25.73
2019-04-06T10:02:16.978Z,26.17
2019-04-06T10:05:14.188Z,24.57
2019-04-06T10:08:05.756Z,23.33
2019-04-06T10:10:48.197Z,24.10
2019-04-06T10:13:39.891Z,22.93
2019-04-06T10:16:28.070Z,24.40
2019-04-06T10:19:16.074Z,24.37
2019-04-06T10:21:58.798Z,26.20
2019-04-06T10:24:47.703Z,25.23
2019-04-06T10:27:51.801Z,24.47
2019-04-06T10:30:35.702Z,24.60
2019-04-06T10:33:24.663Z,24.30
2019-04-06T10:36:14.675Z,23.97
2019-04-06T10:39:02.534Z,21.67
2019-04-06T10:42:02.451Z,21.50
2019-04-06T10:45:00.515Z,22.90
2019-04-06T10:48:00.268Z,21.60
2019-04-06T10:50:49.577Z,22.47
2019-04-06T10:53:32.794Z,21.33
2019-04-06T10:56:37.012Z,23.87
2019-04-06T10:59:40.994Z,22.07
2019-04-06T11:02:28.806Z,22.97
2019-04-06T11:05:30.141Z,22.90
2019-04-06T11:08:19.184Z,21.63
2019-04-06T11:11:08.106Z,20.23
2019-04-06T11:14:03.074Z,19.63
2019-04-06T11:16:57.929Z,20.97
2019-04-06T11:19:45.669Z,20.60
2019-04-06T11:22:27.578Z,18.53
2019-04-06T11:25:19.661Z,19.33
2019-04-06T11:27:56.138Z,19.10
2019-04-06T11:31:03.300Z,18.73
2019-04-06T11:34:01.187Z,17.43
2019-04-06T11:36:55.732Z,17.20
2019-04-06T11:39:56.813Z,17.53
2019-04-06T11:42:33.892Z,18.23
2019-04-06T11:45:19.193Z,18.70
2019-04-06T11:47:56.579Z,18.50
2019-04-06T11:50:39.606Z,16.63
2019-04-06T11:53:46.841Z,16.73
2019-04-06T11:56:34.472Z,18.00
2019-04-06T11:59:22.461Z,17.50
2019-04-06T12:02:26.651Z,15.83
2019-04-06T12:05:21.740Z,15.70
2019-04-06T12:08:25.783Z,18.73
2019-04-06T12:11:13.417Z,18.50
2019-04-06T12:13:51.870Z,18.17
2019-04-06T12:16:52.891Z,17.43
2019-04-06T12:19:49.768Z,17.70
2019-04-06T12:22:44.644Z,16.10
2019-04-06T12:25:29.841Z,14.10
2019-04-06T12:28:21.366Z,17.17
2019-04-06T12:31:18.028Z,17.57
2019-04-06T12:33:58.313Z,17.13
2019-04-06T12:36:37.451Z,17.20
2019-04-06T12:39:27.534Z,13.77
2019-04-06T12:42:08.504Z,13.50
2019-04-06T12:44:49.686Z,15.07
2019-04-06T12:47:28.599Z,16.07
2019-04-06T12:50:26.859Z,14.27
2019-04-06T12:53:27.574Z,14.37
2019-04-06T12:56:19.185Z,15.70
2019-04-06T12:59:20.168Z,14.90
2019-04-06T13:02:08.197Z,14.43
2019-04-06T13:04:59.945Z,13.60
2019-04-06T13:07:48.198Z,14.10
2019-04-06T13:10:36.139Z,14.13
2019-04-06T13:13:27.911Z,14.97
2019-04-06T13:16:20.230Z,13.43
2019-04-06T13:19:15.322Z,12.37
2019-04-06T13:22:22.529Z,12.83
2019-04-06T13:25:01.107Z,14.10
2019-04-06T13:27:52.964Z,13.50
2019-04-06T13:31:02.102Z,12.83
2019-04-06T13:33:31.786Z,12.27
2019-04-06T13:36:12.307Z,11.47
2019-04-06T13:38:49.434Z,12.77
2019-04-06T13:41:34.496Z,12.60
2019-04-06T13:44:12.539Z,12.43
2019-04-06T13:47:10.779Z,11.33
2019-04-06T13:49:58.742Z,9.30
2019-04-06T13:52:46.614Z,9.77
2019-04-06T13:55:32.440Z,10.10
2019-04-06T13:58:11.176Z,10.87
2019-04-06T14:01:16.015Z,10.23
2019-04-06T14:03:57.090Z,8.57
2019-04-06T14:06:44.850Z,8.53
2019-04-06T14:09:33.447Z,8.90
2019-04-06T14:12:09.616Z,8.13
2019-04-06T14:14:46.516Z,8.13
2019-04-06T14:17:25.333Z,8.13
2019-04-06T14:20:14.231Z,7.90
2019-04-06T14:22:54.569Z,8.20
2019-04-06T14:25:46.201Z,8.57
2019-04-06T14:28:28.679Z,7.87
2019-04-06T14:31:27.399Z,8.30
2019-04-06T14:34:10.500Z,8.20
2019-04-06T14:37:08.705Z,8.43
2019-04-06T14:39:56.325Z,8.23
2019-04-06T14:42:43.935Z,7.40
2019-04-06T14:45:30.240Z,8.23
2019-04-06T14:48:12.514Z,7.97
2019-04-06T14:50:51.951Z,8.30
2019-04-06T14:53:29.225Z,8.17
2019-04-06T14:56:20.976Z,7.90
2019-04-06T14:59:09.066Z,7.70
2019-04-06T15:02:07.253Z,7.90
2019-04-06T15:04:55.030Z,7.37
2019-04-06T15:07:30.951Z,7.90
2019-04-06T15:10:11.939Z,7.77
2019-04-06T15:12:59.829Z,8.00
2019-04-06T15:15:47.323Z,7.00
2019-04-06T15:18:35.277Z,7.50
2019-04-06T15:21:21.539Z,7.37
2019-04-06T15:24:13.972Z,7.13
2019-04-06T15:27:08.835Z,7.40
2019-04-06T15:30:01.013Z,7.50
2019-04-06T15:32:44.749Z,7.33
2019-04-06T15:35:32.464Z,7.27
2019-04-06T15:38:21.355Z,7.17
2019-04-06T15:41:06.393Z,6.80
2019-04-06T15:43:58.343Z,7.27
2019-04-06T15:46:49.446Z,7.77
2019-04-06T15:49:50.564Z,6.87
2019-04-06T15:52:38.406Z,7.77
2019-04-06T15:55:25.870Z,7.60
2019-04-06T15:58:17.763Z,6.93
2019-04-06T16:01:05.317Z,7.47
2019-04-06T16:03:48.837Z,7.47
2019-04-06T16:06:50.462Z,7.17
2019-04-06T16:09:38.940Z,6.97
2019-04-06T16:12:33.741Z,6.87
2019-04-06T16:15:18.822Z,6.57
2019-04-06T16:18:07.717Z,6.77
2019-04-06T16:20:59.676Z,6.23
2019-04-06T16:24:01.533Z,5.97
2019-04-06T16:26:34.152Z,6.50
2019-04-06T16:29:26.072Z,6.20
2019-04-06T16:32:32.963Z,6.33
2019-04-06T16:35:17.249Z,6.00
2019-04-06T16:38:00.535Z,5.70
2019-04-06T16:40:37.095Z,5.23
2019-04-06T16:43:16.558Z,5.47
2019-04-06T16:45:53.924Z,5.50
2019-04-06T16:48:37.876Z,5.00
2019-04-06T16:51:29.823Z,5.03
2019-04-06T16:54:33.962Z,5.27
2019-04-06T16:57:22.721Z,4.83
2019-04-06T17:00:20.084Z,5.20
2019-04-06T17:03:10.908Z,4.70
2019-04-06T17:06:11.828Z,4.57
2019-04-06T17:08:52.360Z,5.10
2019-04-06T17:11:38.325Z,5.13
2019-04-06T17:14:27.426Z,4.70
2019-04-06T17:17:06.421Z,4.40
2019-04-06T17:19:53.949Z,4.50
2019-04-06T17:22:29.392Z,5.07
2019-04-06T17:25:14.056Z,5.10
2019-04-06T17:27:52.560Z,5.63
2019-04-06T17:30:28.006Z,5.50
2019-04-06T17:33:16.936Z,5.00
2019-04-06T17:35:54.777Z,5.30
2019-04-06T17:38:52.475Z,5.40
2019-04-06T17:41:50.646Z,5.50
2019-04-06T17:44:32.502Z,5.30
2019-04-06T17:47:24.372Z,5.43
2019-04-06T17:50:22.019Z,5.23
2019-04-06T17:53:06.527Z,5.73
2019-04-06T17:55:54.889Z,6.00
2019-04-06T17:58:50.708Z,5.53
2019-04-06T18:01:44.592Z,5.40
2019-04-06T18:04:28.139Z,6.07
2019-04-06T18:07:15.101Z,5.80
2019-04-06T18:10:03.349Z,6.87
2019-04-06T18:12:48.631Z,6.10
2019-04-06T18:15:18.802Z,6.30
2019-04-06T18:17:49.407Z,6.10
2019-04-06T18:20:19.685Z,6.33
2019-04-06T18:22:50.148Z,6.27
2019-04-06T18:25:20.269Z,6.00
2019-04-06T18:27:50.558Z,6.67
2019-04-06T18:30:21.291Z,6.43
2019-04-06T18:33:00.721Z,5.97
2019-04-06T18:35:27.179Z,6.30
2019-04-06T18:38:02.522Z,6.67
2019-04-06T18:40:32.671Z,6.30
2019-04-06T18:43:02.608Z,6.03
2019-04-06T18:45:33.315Z,6.33
2019-04-06T18:48:03.452Z,5.37
2019-04-06T18:50:38.034Z,5.50
2019-04-06T18:53:05.578Z,5.80
2019-04-06T18:55:35.971Z,5.90
2019-04-06T18:58:12.131Z,5.33
2019-04-06T19:00:37.638Z,5.50
2019-04-06T19:03:14.723Z,5.50
2019-04-06T19:05:39.299Z,5.10
2019-04-06T19:08:09.603Z,5.60
2019-04-06T19:10:39.937Z,5.93
2019-04-06T19:13:10.002Z,5.30
2019-04-06T19:15:39.959Z,5.50
2019-04-06T19:18:10.037Z,5.60
2019-04-06T19:20:40.780Z,5.03
2019-04-06T19:23:10.861Z,5.10
2019-04-06T19:25:41.028Z,5.20
2019-04-06T19:28:12.106Z,5.70
2019-04-06T19:30:42.010Z,5.47
2019-04-06T19:33:22.563Z,5.23
2019-04-06T19:35:43.684Z,5.60
2019-04-06T19:38:13.586Z,5.93
2019-04-06T19:40:43.839Z,5.57
2019-04-06T19:43:15.133Z,5.70
2019-04-06T19:45:45.396Z,5.63
2019-04-06T19:48:15.305Z,5.93
2019-04-06T19:50:45.298Z,6.00
2019-04-06T19:53:15.293Z,5.73
2019-04-06T19:55:45.554Z,5.80
2019-04-06T19:58:15.424Z,5.50
2019-04-06T20:00:45.659Z,5.47
2019-04-06T20:03:16.720Z,5.57
2019-04-06T20:05:46.796Z,5.67
2019-04-06T20:08:17.123Z,5.23
2019-04-06T20:10:47.903Z,5.30
2019-04-06T20:13:17.911Z,5.20
2019-04-06T20:15:47.840Z,5.00
2019-04-06T20:18:18.101Z,5.60
2019-04-06T20:20:49.499Z,5.33
2019-04-06T20:23:19.598Z,4.80
2019-04-06T20:25:50.308Z,5.23
2019-04-06T20:28:20.277Z,5.13
2019-04-06T20:30:50.129Z,5.40
2019-04-06T20:33:20.602Z,5.30
2019-04-06T20:35:50.708Z,5.47
2019-04-06T20:38:20.846Z,4.73
2019-04-06T20:40:50.827Z,5.20
2019-04-06T20:43:21.313Z,5.57
2019-04-06T20:45:51.335Z,5.40
2019-04-06T20:48:21.509Z,5.53
2019-04-06T20:50:51.406Z,5.13
2019-04-06T20:53:21.377Z,4.87
2019-04-06T20:55:51.311Z,4.57
2019-04-06T20:58:21.149Z,4.80
2019-04-06T21:00:51.266Z,5.37
2019-04-06T21:03:22.187Z,5.03
2019-04-06T21:05:52.180Z,4.80
2019-04-06T21:08:22.486Z,4.93
2019-04-06T21:10:52.427Z,5.00
2019-04-06T21:13:22.439Z,5.20
2019-04-06T21:15:52.461Z,4.80
2019-04-06T21:18:22.360Z,5.10
2019-04-06T21:20:52.271Z,5.23
2019-04-06T21:23:22.782Z,5.23
2019-04-06T21:25:52.842Z,5.33
2019-04-06T21:28:42.123Z,5.30
2019-04-06T21:31:12.664Z,5.07
2019-04-06T21:33:45.428Z,5.20
2019-04-06T21:36:14.207Z,5.17
2019-04-06T21:38:44.545Z,5.07
2019-04-06T21:41:15.001Z,5.30
2019-04-06T21:43:44.953Z,5.17
2019-04-06T21:46:15.800Z,5.20
2019-04-06T21:48:45.825Z,5.30
2019-04-06T21:51:15.903Z,5.20
2019-04-06T21:53:46.761Z,5.23
2019-04-06T21:56:16.884Z,4.50
2019-04-06T21:58:46.766Z,4.57
2019-04-06T22:01:19.795Z,4.33
2019-04-06T22:03:51.637Z,4.47
2019-04-06T22:06:24.347Z,4.33
2019-04-06T22:08:55.020Z,4.53
2019-04-06T22:11:25.003Z,4.40
2019-04-06T22:13:54.856Z,4.47
2019-04-06T22:16:24.856Z,3.90
2019-04-06T22:18:55.195Z,3.40
2019-04-06T22:21:25.070Z,3.40
2019-04-06T22:23:55.014Z,3.33
2019-04-06T22:26:25.019Z,2.93
2019-04-06T22:28:54.859Z,3.40
2019-04-06T22:31:24.775Z,3.80
2019-04-06T22:33:54.703Z,3.70
2019-04-06T22:36:24.564Z,3.60
2019-04-06T22:38:55.070Z,3.73
2019-04-06T22:41:25.098Z,3.60
2019-04-06T22:43:55.068Z,3.50
2019-04-06T22:46:25.208Z,3.93
2019-04-06T22:48:55.218Z,3.43
2019-04-06T22:51:25.026Z,3.80
2019-04-06T22:53:54.893Z,3.20
2019-04-06T22:56:24.880Z,3.40
2019-04-06T22:58:54.716Z,3.20
2019-04-06T23:01:25.534Z,3.70
2019-04-06T23:04:33.230Z,3.17
2019-04-06T23:07:07.517Z,3.50
2019-04-06T23:09:37.588Z,3.07
2019-04-06T23:12:07.496Z,3.37
2019-04-06T23:14:37.476Z,3.50
2019-04-06T23:17:07.305Z,3.20
2019-04-06T23:19:37.551Z,3.70
2019-04-06T23:22:07.562Z,3.20
2019-04-06T23:24:37.497Z,3.37
2019-04-06T23:27:07.826Z,3.07
2019-04-06T23:29:38.345Z,3.40
2019-04-06T23:32:08.252Z,3.30
2019-04-06T23:34:38.199Z,3.30
2019-04-06T23:37:08.416Z,3.50
2019-04-06T23:39:38.983Z,3.33
2019-04-06T23:42:08.897Z,3.70
2019-04-06T23:44:38.727Z,3.57
2019-04-06T23:47:08.646Z,3.27
2019-04-06T23:49:38.566Z,3.13
2019-04-06T23:52:08.529Z,3.17
2019-04-06T23:54:38.425Z,3.50
2019-04-06T23:57:08.286Z,3.13
2019-04-06T23:59:38.439Z,3.20
